OMSJ/SHJ METAR and TAF weather

Enter ICAO airport designator
Station Type Date Time Source
OMSJ METAR 2020/07/12 20:00 UTC NOAA

OMSJ 122000Z VRB01KT CAVOK 36/18 Q0995 NOSIG


Station Type Date Time Source
OMSJ Decoded METAR 2020/07/12 20:00 UTC NOAA

Sharjah International Airport, United Arab Emirates (OMSJ) 25-20N 055-31E 33M
Jul 12, 2020 - 04:00 PM EDT / 2020.07.12 2000 UTC
Wind: Variable at 1 MPH (1 KT):0
Visibility: greater than 7 mile(s):0
Temperature: 96 F (36 C)
Heat index: 97.7 F (36.5 C):1
Dew Point: 64 F (18 C)
Relative Humidity: 34%
Pressure (altimeter): 29.38 in. Hg (0995 hPa)
ob: OMSJ 122000Z VRB01KT CAVOK 36/18 Q0995 NOSIG
cycle: 20

Station Type Date Time Source
OMSJ TAF 2020/07/12 18:01 UTC NOAA

TAF OMSJ 121658Z 1218/1400 09005KT 8000 NSC
BECMG 1304/1306 19010KT
BECMG 1308/1310 33010KT
BECMG 1315/1317 13005KT

Example: see airport list